Portage Des Sioux, MO

11:56 PM CDT on September 14, 2014 (GMT -0500)
Saint Charles County Smartt | Change Station
CLOSE
Current Station
Airport
Location: St. Charles,
Elevation: 436 ft
Nearby Weather Stations
Active Advisory: Flood Warning

Elev 436 ft 38.93 °N, 90.43 °W | Updated 1 hour ago

Clear
Clear
55 °F
Feels Like 55 °F
N
0
Wind Variable Wind from North

Today
High -- | Low -- °F
--% Chance of Precip.
Yesterday
High -- | Low -- °F
Precip. -- in
6:42 AM 7:11 PM
Waning Gibbous, 59% visible
Pressure 30.17 in
Visibility 10.0 miles
Clouds Clear
Dew Point 51 °F
Humidity 86%
Rainfall 0.01 in
Snow Depth Not available.
UV 0 out of 12
Pollen 7.40 out of 12
Air Quality Not available.
Flu Activity Not available.
METAR KSET 150354Z AUTO 00000KT 10SM CLR 13/11 A3017 RMK AO1 SLP214 T01280106 $

More Conditions Fewer Conditions

Pressure 30.17 in
Visibility 10.0 miles
Clouds Clear
Dew Point 51 °F
Humidity 86%
Rainfall 0.01 in
Snow Depth Not available.
UV 0 out of 12
Pollen 7.40 out of 12
Air Quality Not available.
Flu Activity Not available.
METAR KSET 150354Z AUTO 00000KT 10SM CLR 13/11 A3017 RMK AO1 SLP214 T01280106 $

More Conditions Fewer Conditions

10-Day Weather Forecast

Almanac

Astronomy

Sep. 14, 2014 Rise Set
Actual Time 6:42 AM CDT 7:11 PM CDT
Civil Twilight 6:15 AM CDT 7:38 PM CDT
Nautical Twilight 5:43 AM CDT 8:09 PM CDT
Astronomical Twilight 5:11 AM CDT 8:41 PM CDT
Moon 11:07 PM CDT (9/14) 12:45 PM CDT (9/14)
Length of Visible Light 13h 22m
Length of Day
12h 29m
Tomorrow will be 2m 30s shorter.
Waning Gibbous, 59% of the Moon is Illuminated
Sep 15
Waning Gibbous
Sep 15
Last Quarter
Sep 24
New
Oct 1
First Quarter
Oct 8
Full

Yesterday's Extremes

State Highs State Lows

Community

WunderPhotos

Upload Photos

1,753,401 photos uploaded!

Nearby

Snow Depth

Station Depth Elevation
No new snow has been reported.

Earthquake Activity

City Distance Mag. Time & Date
No recent earthquake activity has been reported nearby.
Minimum magnitude displayed is 2.5.

Coastal Water Temperatures

Place Temperature
No Stations Reporting

Nearby Weather Stations